Flood From: 24-02-2018 06:00 Until: 25-02-2018 06:00 warning for: Flood Level: Yellow info button

Although rather usual in this region, locally or potentially dangerous phenomena are expected. (such as local winds, summer thunderstorms, rising streams or high waves) Be aware and pay attention to the latest weather updates, especially if you carry out activities exposed to weather or close to a stream or shoreline. 


Meteo18 Weather Cam more information Meteo18 Weather Cam


Thunder radar more information blitzortung!


Rain radar more information rain snow radar


Visit our other weather sites:

Template documentation
and downloads

And another site



Weather Underground History page Text

Daily Summary for September 30, 2017 Units:  Metric    English   Both
« Previous Day
Next Day »
Daily Weekly Monthly Yearly Custom
  High: Low: Average:
Temperature: -17.8 °C -12.6 °C -9.7 °C
Dew Point: -17.8 °C -13.2 °C -11.1 °C
Humidity: Humidity % 62 % 85 %
Wind Speed: 0 km/h 0 km/h 4 km/h
Wind Gust: 0 km/h - -
Wind:- - West
Pressure: 0 hPa 34486.4 hPa -
Precipitation: 284.48 mm    
Historical Graphs
 
 
Tabular Data for September 30, 2017
Time Temperature Dew Point Pressure Wind Wind Speed Wind Gust Humidity Rainfall Rate (Hourly)
-17.8 °C -17.8 °C 0 hPa Calm     Humidity % 0 mm
00:02 -8.4 °C -9.6 °C 34510.1 hPa WNW 5.1 km/h 5.1 km/h 87 % 0 mm
00:12 -8.2 °C -9.6 °C 34510.1 hPa Calm   7.7 km/h 86 % 0 mm
00:17 -8.2 °C -9.5 °C 34510.1 hPa WNW 2.6 km/h 7.7 km/h 86 % 0 mm
00:22 -8 °C -9.5 °C 34510.1 hPa North 2.6 km/h 7.7 km/h 84 % 0 mm
00:32 -7.9 °C -9.5 °C 34510.1 hPa NNE 2.6 km/h 5.1 km/h 83 % 0 mm
00:42 -7.9 °C -9.6 °C 34496.6 hPa Calm   5.1 km/h 83 % 0 mm
00:52 -7.8 °C -9.6 °C 34496.6 hPa Calm   2.6 km/h 82 % 0 mm
00:57 -7.9 °C -9.6 °C 34486.4 hPa Calm     83 % 0 mm
01:02 -7.9 °C -9.6 °C 34486.4 hPa Calm   2.6 km/h 83 % 0 mm
01:12 -8.2 °C -9.7 °C 34486.4 hPa Calm   2.6 km/h 84 % 0 mm
01:17 -8.3 °C -9.7 °C 34496.6 hPa Calm   2.6 km/h 85 % 0 mm
01:22 -8.4 °C -9.7 °C 34496.6 hPa Calm     86 % 0 mm
01:32 -8.4 °C -9.7 °C 34496.6 hPa Calm   2.6 km/h 87 % 0 mm
01:42 -8.5 °C -9.6 °C 34486.4 hPa Calm   2.6 km/h 88 % 0 mm
01:47 -8.5 °C -9.6 °C 34486.4 hPa Calm   5.1 km/h 88 % 0 mm
01:52 -8.5 °C -9.6 °C 34486.4 hPa Calm   5.1 km/h 88 % 0 mm
01:57 -8.4 °C -9.5 °C 34486.4 hPa Calm   5.1 km/h 88 % 0 mm
02:02 -8.4 °C -9.5 °C 34486.4 hPa Calm   2.6 km/h 88 % 0 mm
02:12 -8.4 °C -9.4 °C 34496.6 hPa Calm   2.6 km/h 89 % 0 mm
02:17 -8.4 °C -9.4 °C 34496.6 hPa Calm   2.6 km/h 89 % 0 mm
02:22 -8.3 °C -9.3 °C 34496.6 hPa NW 2.6 km/h 2.6 km/h 90 % 0 mm
02:32 -8.1 °C -9.1 °C 34510.1 hPa WNW 10.3 km/h 20.8 km/h 90 % 0 mm
02:42 -8.1 °C -9 °C 34510.1 hPa WNW 12.9 km/h 25.9 km/h 90 % 0 mm
02:52 -8 °C -8.9 °C 34520.3 hPa NW 2.6 km/h 23.3 km/h 90 % 0 mm
02:57 -8 °C -8.9 °C 34510.1 hPa WNW 5.1 km/h 23.3 km/h 90 % 0 mm
03:02 -7.9 °C -8.9 °C 34510.1 hPa WNW 7.7 km/h 25.9 km/h 90 % 0 mm
03:12 -7.9 °C -8.9 °C 34510.1 hPa WNW 10.3 km/h 25.9 km/h 89 % 0 mm
03:17 -8 °C -9 °C 34510.1 hPa North 10.3 km/h 23.3 km/h 89 % 0 mm
03:27 -8.1 °C -9.1 °C 34510.1 hPa WNW 5.1 km/h 23.3 km/h 89 % 0 mm
03:32 -8.1 °C -9.1 °C 34510.1 hPa NW 5.1 km/h 20.8 km/h 89 % 0 mm
03:42 -8.1 °C -9.2 °C 34496.6 hPa Calm   18.2 km/h 88 % 0 mm
03:52 -8.2 °C -9.3 °C 34510.1 hPa WNW 2.6 km/h 15.6 km/h 88 % 0 mm
03:57 -8.2 °C -9.3 °C 34510.1 hPa WNW 7.7 km/h 15.6 km/h 88 % 0 mm
04:02 -8.2 °C -9.2 °C 34510.1 hPa NW 10.3 km/h 15.6 km/h 89 % 0 mm
04:12 -8.5 °C -9.3 °C 34496.6 hPa WNW 2.6 km/h 15.6 km/h 91 % 12.7 mm
04:17 -8.6 °C -9.4 °C 34496.6 hPa Calm   15.6 km/h 91 % 12.7 mm
04:22 -8.6 °C -9.3 °C 34496.6 hPa NNW 2.6 km/h 12.9 km/h 92 % 12.7 mm
04:27 -8.7 °C -9.4 °C 34496.6 hPa NW 2.6 km/h 10.3 km/h 92 % 12.7 mm
04:32 -8.7 °C -9.3 °C 34496.6 hPa NW 2.6 km/h 5.1 km/h 93 % 12.7 mm
04:37 -8.7 °C -9.3 °C 34496.6 hPa Calm   5.1 km/h 93 % 12.7 mm
04:42 -8.7 °C -9.3 °C 34496.6 hPa Calm   7.7 km/h 93 % 12.7 mm
04:47 -8.7 °C -9.3 °C 34496.6 hPa West 5.1 km/h 7.7 km/h 93 % 12.7 mm
04:52 -8.7 °C -9.3 °C 34496.6 hPa Calm   7.7 km/h 93 % 12.7 mm
05:12 -8.8 °C -9.3 °C 34510.1 hPa NW 5.1 km/h 18.2 km/h 94 % 12.7 mm
05:17 -8.8 °C -9.4 °C 34510.1 hPa North 2.6 km/h 18.2 km/h 94 % 12.7 mm
05:22 -8.8 °C -9.4 °C 34510.1 hPa Calm   23.3 km/h 94 % 63.5 mm
05:32 -8.9 °C -9.5 °C 34510.1 hPa Calm   12.9 km/h 94 % 76.2 mm
05:37 -8.9 °C -9.5 °C 34510.1 hPa Calm   12.9 km/h 94 % 76.2 mm
05:42 -8.9 °C -9.5 °C 34520.3 hPa WNW 5.1 km/h 10.3 km/h 94 % 91.44 mm
05:52 -9 °C -9.6 °C 34510.1 hPa Calm   7.7 km/h 94 % 96.52 mm
05:57 -9 °C -9.6 °C 34510.1 hPa SW 2.6 km/h 7.7 km/h 94 % 96.52 mm
06:02 -9 °C -9.6 °C 34520.3 hPa West 7.7 km/h 7.7 km/h 94 % 104.14 mm
06:12 -9.1 °C -9.6 °C 34520.3 hPa WNW 5.1 km/h 10.3 km/h 94 % 91.44 mm
06:17 -9.1 °C -9.6 °C 34520.3 hPa West 2.6 km/h 10.3 km/h 94 % 91.44 mm
06:22 -9.1 °C -9.6 °C 34510.1 hPa Calm   10.3 km/h 94 % 50.8 mm
06:32 -9.1 °C -9.7 °C 34510.1 hPa Calm   10.3 km/h 94 % 50.8 mm
06:42 -9.1 °C -9.7 °C 34520.3 hPa WNW 5.1 km/h 7.7 km/h 94 % 33.02 mm
06:47 -9.2 °C -9.7 °C 34520.3 hPa WNW 2.6 km/h 7.7 km/h 94 % 33.02 mm
06:52 -9.2 °C -9.8 °C 34520.3 hPa West 5.1 km/h 10.3 km/h 94 % 33.02 mm
07:02 -9.3 °C -9.8 °C 34520.3 hPa Calm   10.3 km/h 94 % 33.02 mm
07:07 -9.3 °C -9.8 °C 34520.3 hPa WNW 7.7 km/h 10.3 km/h 94 % 33.02 mm
07:12 -9.3 °C -9.8 °C 34520.3 hPa WNW 5.1 km/h 12.9 km/h 94 % 33.02 mm
07:17 -9.3 °C -9.7 °C 34520.3 hPa WSW 2.6 km/h 12.9 km/h 95 % 33.02 mm
07:22 -9.3 °C -9.8 °C 34520.3 hPa NW 5.1 km/h 18.2 km/h 95 % 25.4 mm
07:32 -9.8 °C -10.4 °C 34533.8 hPa WNW 7.7 km/h 44.1 km/h 93 % 33.02 mm
07:42 -10.1 °C -10.6 °C 34544 hPa North 7.7 km/h 44.1 km/h 94 % 25.4 mm
07:47 -10.1 °C -10.6 °C 34544 hPa NW 25.9 km/h 44.1 km/h 94 % 25.4 mm
07:52 -10.2 °C -10.7 °C 34544 hPa NNW 7.7 km/h 28.5 km/h 94 % 25.4 mm
07:57 -10.3 °C -10.8 °C 34554.1 hPa WNW 10.3 km/h 28.5 km/h 94 % 25.4 mm
08:02 -10.3 °C -10.8 °C 34554.1 hPa NW 15.6 km/h 28.5 km/h 95 % 25.4 mm
08:12 -10.4 °C -10.9 °C 34567.7 hPa NNW 5.1 km/h 25.9 km/h 95 % 25.4 mm
08:17 -10.5 °C -10.9 °C 34567.7 hPa NW 23.3 km/h 25.9 km/h 95 % 25.4 mm
08:22 -10.5 °C -10.9 °C 34567.7 hPa Calm   31.1 km/h 95 % 33.02 mm
08:27 -10.6 °C -11.1 °C 34567.7 hPa WNW 25.9 km/h 31.1 km/h 95 % 33.02 mm
08:32 -10.7 °C -11.1 °C 34567.7 hPa NNW 7.7 km/h 31.1 km/h 95 % 38.1 mm
08:42 -10.7 °C -11.2 °C 34567.7 hPa NNW 5.1 km/h 31.1 km/h 95 % 45.72 mm
08:52 -10.8 °C -11.2 °C 34567.7 hPa WNW 12.9 km/h 28.5 km/h 95 % 50.8 mm
08:57 -10.8 °C -11.1 °C 34567.7 hPa NNW 10.3 km/h 28.5 km/h 96 % 50.8 mm
09:02 -10.8 °C -11.1 °C 34567.7 hPa NNW 7.7 km/h 25.9 km/h 96 % 50.8 mm
09:12 -10.8 °C -11.1 °C 34567.7 hPa NW 7.7 km/h 20.8 km/h 96 % 50.8 mm
09:22 -10.8 °C -11.1 °C 34577.8 hPa WNW 7.7 km/h 20.8 km/h 96 % 45.72 mm
09:32 -10.8 °C -11.1 °C 34577.8 hPa NNW 5.1 km/h 20.8 km/h 96 % 38.1 mm
09:42 -10.8 °C -11.1 °C 34577.8 hPa NNW 5.1 km/h 15.6 km/h 96 % 38.1 mm
09:52 -10.8 °C -11.1 °C 34591.4 hPa NW 2.6 km/h 20.8 km/h 96 % 25.4 mm
10:02 -10.8 °C -11.2 °C 34577.8 hPa North 5.1 km/h 20.8 km/h 96 % 25.4 mm
10:12 -10.9 °C -11.2 °C 34577.8 hPa NNE 7.7 km/h 23.3 km/h 96 % 25.4 mm
10:17 -10.8 °C -11.2 °C 34577.8 hPa NNE 2.6 km/h 23.3 km/h 96 % 25.4 mm
10:22 -10.8 °C -11.2 °C 34567.7 hPa North 2.6 km/h 15.6 km/h 96 % 33.02 mm
10:32 -10.8 °C -11.2 °C 34567.7 hPa Calm   10.3 km/h 96 % 38.1 mm
10:42 -10.8 °C -11.1 °C 34577.8 hPa Calm   10.3 km/h 96 % 38.1 mm
10:47 -10.8 °C -11.1 °C 34577.8 hPa Calm   10.3 km/h 96 % 38.1 mm
10:52 -10.7 °C -11.1 °C 34577.8 hPa Calm   2.6 km/h 96 % 38.1 mm
11:02 -10.7 °C -11.1 °C 34591.4 hPa WNW 2.6 km/h 2.6 km/h 96 % 38.1 mm
11:12 -10.7 °C -11 °C 34591.4 hPa WNW 2.6 km/h 10.3 km/h 96 % 33.02 mm
11:22 -10.6 °C -10.9 °C 34591.4 hPa NW 5.1 km/h 15.6 km/h 96 % 12.7 mm
11:32 -10.4 °C -10.9 °C 34591.4 hPa WNW 7.7 km/h 15.6 km/h 95 % 12.7 mm
11:42 -10.5 °C -10.9 °C 34591.4 hPa Calm   10.3 km/h 95 % 0 mm
11:47 -10.5 °C -11 °C 34591.4 hPa West 2.6 km/h 10.3 km/h 94 % 0 mm
11:52 -10.4 °C -10.9 °C 34591.4 hPa Calm   10.3 km/h 95 % 0 mm
12:02 -10.3 °C -10.8 °C 34591.4 hPa West 7.7 km/h 10.3 km/h 95 % 0 mm
12:12 -10.2 °C -10.7 °C 34591.4 hPa Calm   10.3 km/h 94 % 0 mm
12:17 -10.1 °C -10.8 °C 34591.4 hPa WNW 12.9 km/h 12.9 km/h 92 % 0 mm
12:22 -10.1 °C -10.7 °C 34591.4 hPa Calm   15.6 km/h 93 % 0 mm
12:32 -9.9 °C -10.7 °C 34591.4 hPa Calm   15.6 km/h 91 % 0 mm
12:42 -9.9 °C -11 °C 34591.4 hPa WSW 2.6 km/h 18.2 km/h 88 % 0 mm
12:47 -9.7 °C -10.8 °C 34591.4 hPa Calm   18.2 km/h 87 % 0 mm
12:52 -9.6 °C -11.1 °C 34591.4 hPa Calm   10.3 km/h 84 % 0 mm
13:02 -9.3 °C -11.4 °C 34591.4 hPa Calm   10.3 km/h 78 % 0 mm
13:07 -9.1 °C -11.3 °C 34591.4 hPa Calm   10.3 km/h 77 % 0 mm
13:17 -8.7 °C -11.2 °C 34591.4 hPa SW 5.1 km/h 7.7 km/h 75 % 0 mm
13:22 -8.8 °C -11.6 °C 34577.8 hPa SSW 7.7 km/h 15.6 km/h 72 % 0 mm
13:32 -8.8 °C -11.4 °C 34577.8 hPa SW 2.6 km/h 15.6 km/h 73 % 0 mm
13:42 -8.8 °C -11.4 °C 34577.8 hPa WSW 7.7 km/h 12.9 km/h 73 % 0 mm
13:47 -8.8 °C -11.6 °C 34577.8 hPa West 5.1 km/h 12.9 km/h 72 % 0 mm
13:52 -8.8 °C -11.5 °C 34577.8 hPa SW 7.7 km/h 15.6 km/h 73 % 0 mm
14:02 -8.8 °C -11.9 °C 34577.8 hPa WNW 18.2 km/h 20.8 km/h 69 % 0 mm
14:12 -8.8 °C -12.2 °C 34567.7 hPa WNW 10.3 km/h 25.9 km/h 67 % 0 mm
14:17 -8.9 °C -12.2 °C 34567.7 hPa WNW 10.3 km/h 25.9 km/h 68 % 0 mm
14:22 -8.9 °C -12 °C 34567.7 hPa Calm   25.9 km/h 70 % 0 mm
14:32 -9 °C -11.8 °C 34567.7 hPa WNW 5.1 km/h 25.9 km/h 72 % 0 mm
14:42 -9.2 °C -12.1 °C 34577.8 hPa West 15.6 km/h 18.2 km/h 71 % 0 mm
14:47 -9.2 °C -12 °C 34577.8 hPa WSW 7.7 km/h 18.2 km/h 72 % 0 mm
14:52 -9.1 °C -12 °C 34577.8 hPa West 12.9 km/h 25.9 km/h 71 % 0 mm
14:57 -8.9 °C -11.5 °C 34567.7 hPa West 5.1 km/h 25.9 km/h 74 % 0 mm
15:02 -8.9 °C -11.6 °C 34577.8 hPa West 10.3 km/h 18.2 km/h 73 % 0 mm
15:12 -8.8 °C -11.8 °C 34567.7 hPa West 10.3 km/h 28.5 km/h 70 % 0 mm
15:17 -8.8 °C -11.8 °C 34567.7 hPa NW 5.1 km/h 28.5 km/h 71 % 0 mm
15:22 -8.7 °C -11.6 °C 34567.7 hPa WSW 10.3 km/h 25.9 km/h 71 % 0 mm
15:32 -8.8 °C -11.8 °C 34567.7 hPa SW 7.7 km/h 31.1 km/h 70 % 0 mm
15:37 -8.8 °C -11.8 °C 34567.7 hPa WSW 15.6 km/h 31.1 km/h 70 % 0 mm
15:42 -8.6 °C -11.8 °C 34567.7 hPa West 7.7 km/h 33.6 km/h 69 % 0 mm
15:47 -8.6 °C -12.1 °C 34567.7 hPa West 15.6 km/h 33.6 km/h 66 % 0 mm
15:52 -8.5 °C -12.1 °C 34567.7 hPa WSW 12.9 km/h 33.6 km/h 66 % 0 mm
15:57 -8.4 °C -12.2 °C 34567.7 hPa Calm   33.6 km/h 64 % 0 mm
16:02 -8.4 °C -11.9 °C 34567.7 hPa West 15.6 km/h 28.5 km/h 66 % 0 mm
16:12 -8.5 °C -12.4 °C 34554.1 hPa WNW 23.3 km/h 23.3 km/h 63 % 0 mm
16:17 -8.6 °C -12.6 °C 34567.7 hPa West 10.3 km/h 23.3 km/h 62 % 0 mm
16:22 -8.6 °C -12.3 °C 34567.7 hPa NW 7.7 km/h 23.3 km/h 64 % 0 mm
16:32 -8.4 °C -12.3 °C 34567.7 hPa NW 7.7 km/h 23.3 km/h 63 % 0 mm
16:42 -8.4 °C -12.2 °C 34577.8 hPa WNW 25.9 km/h 25.9 km/h 64 % 0 mm
16:47 -8.2 °C -12 °C 34577.8 hPa West 10.3 km/h 25.9 km/h 64 % 0 mm
16:52 -8.3 °C -12.2 °C 34577.8 hPa West 7.7 km/h 25.9 km/h 63 % 0 mm
16:57 -8.3 °C -12.2 °C 34577.8 hPa NW 7.7 km/h 25.9 km/h 63 % 0 mm
17:02 -8.3 °C -11.9 °C 34591.4 hPa West 5.1 km/h 25.9 km/h 65 % 0 mm
17:12 -8.3 °C -12.3 °C 34577.8 hPa WNW 12.9 km/h 25.9 km/h 62 % 0 mm
17:17 -8.4 °C -12.2 °C 34577.8 hPa NW 5.1 km/h 23.3 km/h 64 % 0 mm
17:22 -8.5 °C -12.1 °C 34577.8 hPa NW 7.7 km/h 31.1 km/h 66 % 0 mm
17:32 -8.7 °C -12.3 °C 34577.8 hPa NW 15.6 km/h 31.1 km/h 65 % 0 mm
17:42 -8.7 °C -12.3 °C 34577.8 hPa WNW 5.1 km/h 23.3 km/h 66 % 0 mm
17:47 -8.8 °C -12.3 °C 34577.8 hPa Calm   18.2 km/h 66 % 0 mm
17:57 -8.9 °C -12.3 °C 34577.8 hPa Calm   12.9 km/h 67 % 0 mm
18:02 -9 °C -12.3 °C 34577.8 hPa WNW 2.6 km/h 10.3 km/h 68 % 0 mm
18:12 -9.1 °C -12.2 °C 34591.4 hPa WNW 2.6 km/h 7.7 km/h 70 % 0 mm
18:17 -9.1 °C -12.2 °C 34591.4 hPa Calm   7.7 km/h 70 % 0 mm
18:22 -9.1 °C -12.2 °C 34591.4 hPa West 2.6 km/h 7.7 km/h 70 % 0 mm
18:32 -9.1 °C -12.2 °C 34591.4 hPa West 7.7 km/h 7.7 km/h 70 % 0 mm
18:37 -9.1 °C -12.2 °C 34591.4 hPa Calm   10.3 km/h 70 % 0 mm
18:42 -9.1 °C -12 °C 34591.4 hPa West 2.6 km/h 10.3 km/h 71 % 0 mm
18:52 -8.9 °C -11.7 °C 34591.4 hPa Calm   10.3 km/h 72 % 0 mm
18:57 -8.8 °C -11.3 °C 34591.4 hPa Calm   7.7 km/h 74 % 0 mm
19:02 -8.8 °C -11.8 °C 34591.4 hPa WNW 5.1 km/h 7.7 km/h 71 % 0 mm
19:12 -9.2 °C -11.8 °C 34601.5 hPa Calm   5.1 km/h 73 % 0 mm
19:17 -9.3 °C -11.8 °C 34601.5 hPa West 2.6 km/h 7.7 km/h 75 % 0 mm
19:22 -9.6 °C -11.8 °C 34601.5 hPa Calm   7.7 km/h 77 % 0 mm
19:32 -9.9 °C -11.9 °C 34601.5 hPa Calm   7.7 km/h 79 % 0 mm
19:37 -10.1 °C -11.8 °C 34601.5 hPa Calm   7.7 km/h 81 % 0 mm
19:42 -10.2 °C -11.7 °C 34601.5 hPa Calm   7.7 km/h 83 % 0 mm
19:47 -10.3 °C -11.7 °C 34601.5 hPa Calm   2.6 km/h 85 % 0 mm
19:52 -10.5 °C -11.8 °C 34611.7 hPa Calm     86 % 0 mm
20:02 -10.7 °C -11.8 °C 34601.5 hPa Calm   2.6 km/h 88 % 0 mm
20:12 -10.9 °C -11.9 °C 34601.5 hPa Calm   2.6 km/h 89 % 0 mm
20:17 -11 °C -11.9 °C 34611.7 hPa Calm   2.6 km/h 90 % 0 mm
20:22 -11.1 °C -11.9 °C 34611.7 hPa Calm   2.6 km/h 90 % 0 mm
20:27 -11.1 °C -12 °C 34611.7 hPa Calm   2.6 km/h 90 % 0 mm
20:32 -11.2 °C -12.2 °C 34611.7 hPa Calm   2.6 km/h 89 % 0 mm
20:42 -11.3 °C -12.3 °C 34625.2 hPa Calm   2.6 km/h 89 % 0 mm
20:47 -11.3 °C -12.2 °C 34625.2 hPa Calm   2.6 km/h 90 % 0 mm
20:52 -11.3 °C -12.2 °C 34625.2 hPa Calm   2.6 km/h 90 % 0 mm
20:57 -11.3 °C -12.1 °C 34625.2 hPa Calm   2.6 km/h 91 % 0 mm
21:02 -11.4 °C -12.2 °C 34635.4 hPa Calm   2.6 km/h 91 % 0 mm
21:07 -11.5 °C -12.3 °C 34625.2 hPa Calm     91 % 0 mm
21:12 -11.6 °C -12.3 °C 34625.2 hPa Calm     91 % 0 mm
21:17 -11.5 °C -12.2 °C 34625.2 hPa Calm     92 % 0 mm
21:22 -11.4 °C -12.2 °C 34625.2 hPa Calm   2.6 km/h 91 % 0 mm
21:27 -11.5 °C -12.4 °C 34635.4 hPa Calm   2.6 km/h 90 % 0 mm
21:32 -11.6 °C -12.4 °C 34635.4 hPa Calm   2.6 km/h 91 % 0 mm
21:37 -11.7 °C -12.4 °C 34625.2 hPa Calm   2.6 km/h 91 % 0 mm
21:47 -11.6 °C -12.3 °C 34625.2 hPa Calm   2.6 km/h 92 % 0 mm
21:52 -11.6 °C -12.4 °C 34625.2 hPa Calm   2.6 km/h 91 % 0 mm
21:57 -11.7 °C -12.5 °C 34635.4 hPa Calm     91 % 0 mm
22:02 -11.8 °C -12.4 °C 34625.2 hPa Calm     92 % 0 mm
22:12 -11.8 °C -12.5 °C 34635.4 hPa Calm     92 % 0 mm
22:17 -11.9 °C -12.6 °C 34625.2 hPa Calm     92 % 0 mm
22:22 -11.9 °C -12.6 °C 34635.4 hPa Calm   2.6 km/h 92 % 0 mm
22:32 -11.9 °C -12.6 °C 34625.2 hPa Calm   2.6 km/h 93 % 0 mm
22:42 -12 °C -12.7 °C 34625.2 hPa Calm   2.6 km/h 92 % 0 mm
22:47 -12 °C -12.7 °C 34625.2 hPa Calm   2.6 km/h 92 % 0 mm
22:52 -12.1 °C -12.7 °C 34625.2 hPa Calm   2.6 km/h 92 % 0 mm
22:57 -12.1 °C -12.8 °C 34625.2 hPa Calm   2.6 km/h 92 % 0 mm
23:02 -12.1 °C -12.7 °C 34625.2 hPa Calm   2.6 km/h 93 % 0 mm
23:12 -12.2 °C -12.8 °C 34611.7 hPa Calm   2.6 km/h 93 % 0 mm
23:17 -12.2 °C -12.8 °C 34625.2 hPa Calm   2.6 km/h 93 % 0 mm
23:22 -12.2 °C -12.8 °C 34625.2 hPa Calm   2.6 km/h 93 % 0 mm
23:27 -12.2 °C -12.8 °C 34611.7 hPa Calm   2.6 km/h 93 % 0 mm
23:32 -12.2 °C -12.8 °C 34611.7 hPa Calm   2.6 km/h 93 % 0 mm
23:42 -12.3 °C -12.9 °C 34611.7 hPa Calm     93 % 0 mm
23:47 -12.4 °C -13 °C 34611.7 hPa Calm     93 % 0 mm
23:52 -12.5 °C -13.1 °C 34611.7 hPa Calm   2.6 km/h 93 % 0 mm
23:57 -12.6 °C -13.2 °C 34625.2 hPa Calm   2.6 km/h 93 % 0 mm
Meteo18
Compliments of Weather Underground - 4 mb

Script developed by  Jim McMurry - jmcmurry@mwt.net Adapted for the template by  Wim van der Kuil - Leuven-Template.eu

You find our weather info also at:

European Weather Network

Weather Underground

Equipment we use:

Weather-station
Davis Vue

Weather-program
Meteobridge

Weather-server
Raspberry PI 2 B+

Provider
1 and 1

Davis Vue

Meteobridge

Raspberry PI 2 B+

1 and 1